sensor_id;sensor_type;location;lat;lon;timestamp;P1;durP1;ratioP1;P2;durP2;ratioP2
83552;SDS011;73510;50.866;5.420;2023-12-20T00:00:25;10.60;;;3.45;;
83552;SDS011;73510;50.866;5.420;2023-12-20T00:02:51;10.95;;;3.10;;
83552;SDS011;73510;50.866;5.420;2023-12-20T00:05:17;7.85;;;2.20;;
83552;SDS011;73510;50.866;5.420;2023-12-20T00:07:42;9.00;;;2.88;;
83552;SDS011;73510;50.866;5.420;2023-12-20T00:10:08;9.10;;;2.00;;
83552;SDS011;73510;50.866;5.420;2023-12-20T00:12:34;4.15;;;1.25;;
83552;SDS011;73510;50.866;5.420;2023-12-20T00:15:00;9.50;;;1.88;;
83552;SDS011;73510;50.866;5.420;2023-12-20T00:17:25;6.57;;;1.90;;
83552;SDS011;73510;50.866;5.420;2023-12-20T00:19:51;5.28;;;1.83;;
83552;SDS011;73510;50.866;5.420;2023-12-20T00:22:17;8.80;;;1.38;;
83552;SDS011;73510;50.866;5.420;2023-12-20T00:24:42;6.82;;;1.88;;
83552;SDS011;73510;50.866;5.420;2023-12-20T00:27:08;6.22;;;1.85;;
83552;SDS011;73510;50.866;5.420;2023-12-20T00:29:34;8.25;;;1.95;;
83552;SDS011;73510;50.866;5.420;2023-12-20T00:31:59;7.20;;;1.30;;
83552;SDS011;73510;50.866;5.420;2023-12-20T00:34:25;7.50;;;1.63;;
83552;SDS011;73510;50.866;5.420;2023-12-20T00:36:50;6.68;;;1.58;;
83552;SDS011;73510;50.866;5.420;2023-12-20T00:39:16;7.22;;;1.60;;
83552;SDS011;73510;50.866;5.420;2023-12-20T00:41:42;7.30;;;1.83;;
83552;SDS011;73510;50.866;5.420;2023-12-20T00:44:07;9.27;;;1.45;;
83552;SDS011;73510;50.866;5.420;2023-12-20T00:46:33;7.72;;;1.80;;
83552;SDS011;73510;50.866;5.420;2023-12-20T00:48:59;3.63;;;1.60;;
83552;SDS011;73510;50.866;5.420;2023-12-20T00:51:24;7.55;;;1.38;;
83552;SDS011;73510;50.866;5.420;2023-12-20T00:53:50;5.07;;;1.30;;
83552;SDS011;73510;50.866;5.420;2023-12-20T00:56:19;5.15;;;1.25;;
83552;SDS011;73510;50.866;5.420;2023-12-20T00:58:45;8.10;;;1.80;;
83552;SDS011;73510;50.866;5.420;2023-12-20T01:01:11;4.15;;;1.13;;
83552;SDS011;73510;50.866;5.420;2023-12-20T01:03:37;8.70;;;1.63;;
83552;SDS011;73510;50.866;5.420;2023-12-20T01:06:03;5.45;;;1.70;;
83552;SDS011;73510;50.866;5.420;2023-12-20T01:08:30;6.18;;;1.40;;
83552;SDS011;73510;50.866;5.420;2023-12-20T01:10:56;7.38;;;2.17;;
83552;SDS011;73510;50.866;5.420;2023-12-20T01:13:21;7.65;;;1.35;;
83552;SDS011;73510;50.866;5.420;2023-12-20T01:15:47;6.20;;;1.63;;
83552;SDS011;73510;50.866;5.420;2023-12-20T01:18:13;4.82;;;1.25;;
83552;SDS011;73510;50.866;5.420;2023-12-20T01:20:39;11.05;;;2.10;;
83552;SDS011;73510;50.866;5.420;2023-12-20T01:23:05;4.45;;;1.50;;
83552;SDS011;73510;50.866;5.420;2023-12-20T01:25:31;5.53;;;1.10;;
83552;SDS011;73510;50.866;5.420;2023-12-20T01:27:57;6.20;;;1.75;;
83552;SDS011;73510;50.866;5.420;2023-12-20T01:30:22;8.07;;;1.73;;
83552;SDS011;73510;50.866;5.420;2023-12-20T01:32:49;7.95;;;1.50;;
83552;SDS011;73510;50.866;5.420;2023-12-20T01:35:15;10.25;;;2.38;;
83552;SDS011;73510;50.866;5.420;2023-12-20T01:37:40;9.27;;;2.20;;
83552;SDS011;73510;50.866;5.420;2023-12-20T01:40:07;2.85;;;1.20;;
83552;SDS011;73510;50.866;5.420;2023-12-20T01:42:33;5.65;;;1.73;;
83552;SDS011;73510;50.866;5.420;2023-12-20T01:44:58;8.02;;;2.13;;
83552;SDS011;73510;50.866;5.420;2023-12-20T01:47:24;4.90;;;2.05;;
83552;SDS011;73510;50.866;5.420;2023-12-20T01:49:52;10.00;;;2.03;;
83552;SDS011;73510;50.866;5.420;2023-12-20T01:52:19;6.43;;;1.77;;
83552;SDS011;73510;50.866;5.420;2023-12-20T01:54:45;8.35;;;1.65;;
83552;SDS011;73510;50.866;5.420;2023-12-20T01:57:12;7.88;;;1.73;;
83552;SDS011;73510;50.866;5.420;2023-12-20T01:59:39;8.30;;;1.67;;
83552;SDS011;73510;50.866;5.420;2023-12-20T02:02:05;10.50;;;1.70;;
83552;SDS011;73510;50.866;5.420;2023-12-20T02:04:32;5.50;;;1.50;;
83552;SDS011;73510;50.866;5.420;2023-12-20T02:06:58;8.98;;;1.85;;
83552;SDS011;73510;50.866;5.420;2023-12-20T02:09:25;6.32;;;2.08;;
83552;SDS011;73510;50.866;5.420;2023-12-20T02:11:51;8.13;;;1.88;;
83552;SDS011;73510;50.866;5.420;2023-12-20T02:14:16;7.10;;;1.83;;
83552;SDS011;73510;50.866;5.420;2023-12-20T02:16:42;3.65;;;1.50;;
83552;SDS011;73510;50.866;5.420;2023-12-20T02:19:09;7.88;;;1.80;;
83552;SDS011;73510;50.866;5.420;2023-12-20T02:21:39;12.60;;;2.05;;
83552;SDS011;73510;50.866;5.420;2023-12-20T02:24:05;7.85;;;2.30;;
83552;SDS011;73510;50.866;5.420;2023-12-20T02:26:31;13.20;;;3.22;;
83552;SDS011;73510;50.866;5.420;2023-12-20T02:28:58;7.45;;;2.55;;
83552;SDS011;73510;50.866;5.420;2023-12-20T02:31:24;10.07;;;2.25;;
83552;SDS011;73510;50.866;5.420;2023-12-20T02:33:50;6.63;;;2.13;;
83552;SDS011;73510;50.866;5.420;2023-12-20T02:36:15;4.43;;;1.73;;
83552;SDS011;73510;50.866;5.420;2023-12-20T02:38:41;8.90;;;2.08;;
83552;SDS011;73510;50.866;5.420;2023-12-20T02:41:07;9.05;;;1.90;;
83552;SDS011;73510;50.866;5.420;2023-12-20T02:43:33;9.20;;;2.25;;
83552;SDS011;73510;50.866;5.420;2023-12-20T02:45:59;10.25;;;2.20;;
83552;SDS011;73510;50.866;5.420;2023-12-20T02:48:24;9.10;;;2.47;;
83552;SDS011;73510;50.866;5.420;2023-12-20T02:50:50;8.88;;;2.40;;
83552;SDS011;73510;50.866;5.420;2023-12-20T02:53:16;8.57;;;2.08;;
83552;SDS011;73510;50.866;5.420;2023-12-20T02:55:42;7.10;;;2.05;;
83552;SDS011;73510;50.866;5.420;2023-12-20T02:58:07;5.68;;;2.03;;
83552;SDS011;73510;50.866;5.420;2023-12-20T03:00:33;10.15;;;2.63;;
83552;SDS011;73510;50.866;5.420;2023-12-20T03:02:59;8.27;;;2.40;;
83552;SDS011;73510;50.866;5.420;2023-12-20T03:05:25;5.93;;;1.90;;
83552;SDS011;73510;50.866;5.420;2023-12-20T03:07:51;7.82;;;1.67;;
83552;SDS011;73510;50.866;5.420;2023-12-20T03:10:18;7.32;;;1.88;;
83552;SDS011;73510;50.866;5.420;2023-12-20T03:12:44;8.13;;;1.85;;
83552;SDS011;73510;50.866;5.420;2023-12-20T03:15:10;9.27;;;1.90;;
83552;SDS011;73510;50.866;5.420;2023-12-20T03:17:35;5.47;;;1.92;;
83552;SDS011;73510;50.866;5.420;2023-12-20T03:20:01;6.00;;;1.85;;
83552;SDS011;73510;50.866;5.420;2023-12-20T03:22:28;10.20;;;1.92;;
83552;SDS011;73510;50.866;5.420;2023-12-20T03:24:53;8.43;;;2.08;;
83552;SDS011;73510;50.866;5.420;2023-12-20T03:27:19;6.53;;;1.77;;
83552;SDS011;73510;50.866;5.420;2023-12-20T03:29:44;4.32;;;1.92;;
83552;SDS011;73510;50.866;5.420;2023-12-20T03:32:10;4.80;;;2.10;;
83552;SDS011;73510;50.866;5.420;2023-12-20T03:34:36;9.02;;;2.40;;
83552;SDS011;73510;50.866;5.420;2023-12-20T03:37:02;12.93;;;2.17;;
83552;SDS011;73510;50.866;5.420;2023-12-20T03:39:27;8.77;;;2.33;;
83552;SDS011;73510;50.866;5.420;2023-12-20T03:41:54;7.57;;;1.70;;
83552;SDS011;73510;50.866;5.420;2023-12-20T03:44:19;4.30;;;1.60;;
83552;SDS011;73510;50.866;5.420;2023-12-20T03:46:45;7.68;;;2.08;;
83552;SDS011;73510;50.866;5.420;2023-12-20T03:49:11;11.25;;;3.17;;
83552;SDS011;73510;50.866;5.420;2023-12-20T03:51:37;6.68;;;2.08;;
83552;SDS011;73510;50.866;5.420;2023-12-20T03:54:02;6.30;;;1.80;;
83552;SDS011;73510;50.866;5.420;2023-12-20T03:56:28;8.93;;;2.33;;
83552;SDS011;73510;50.866;5.420;2023-12-20T03:58:54;9.32;;;2.55;;
83552;SDS011;73510;50.866;5.420;2023-12-20T04:01:20;9.77;;;2.65;;
83552;SDS011;73510;50.866;5.420;2023-12-20T04:03:46;12.27;;;3.13;;
83552;SDS011;73510;50.866;5.420;2023-12-20T04:06:16;6.53;;;2.25;;
83552;SDS011;73510;50.866;5.420;2023-12-20T04:08:42;10.15;;;2.17;;
83552;SDS011;73510;50.866;5.420;2023-12-20T04:11:08;11.32;;;2.70;;
83552;SDS011;73510;50.866;5.420;2023-12-20T04:13:34;8.80;;;2.30;;
83552;SDS011;73510;50.866;5.420;2023-12-20T04:15:59;7.57;;;2.30;;
83552;SDS011;73510;50.866;5.420;2023-12-20T04:18:25;9.25;;;2.40;;
83552;SDS011;73510;50.866;5.420;2023-12-20T04:20:51;10.77;;;2.20;;
83552;SDS011;73510;50.866;5.420;2023-12-20T04:23:16;11.43;;;1.88;;
83552;SDS011;73510;50.866;5.420;2023-12-20T04:25:42;10.73;;;3.28;;
83552;SDS011;73510;50.866;5.420;2023-12-20T04:28:08;6.35;;;2.10;;
83552;SDS011;73510;50.866;5.420;2023-12-20T04:30:33;11.00;;;2.17;;
83552;SDS011;73510;50.866;5.420;2023-12-20T04:33:00;8.52;;;1.88;;
83552;SDS011;73510;50.866;5.420;2023-12-20T04:35:25;10.40;;;2.60;;
83552;SDS011;73510;50.866;5.420;2023-12-20T04:37:51;9.02;;;2.92;;
83552;SDS011;73510;50.866;5.420;2023-12-20T04:40:17;9.32;;;2.40;;
83552;SDS011;73510;50.866;5.420;2023-12-20T04:42:43;4.00;;;1.73;;
83552;SDS011;73510;50.866;5.420;2023-12-20T04:45:09;6.60;;;2.28;;
83552;SDS011;73510;50.866;5.420;2023-12-20T04:47:37;7.05;;;2.38;;
83552;SDS011;73510;50.866;5.420;2023-12-20T04:50:03;11.52;;;3.28;;
83552;SDS011;73510;50.866;5.420;2023-12-20T04:52:29;10.27;;;2.85;;
83552;SDS011;73510;50.866;5.420;2023-12-20T04:54:55;8.75;;;2.78;;
83552;SDS011;73510;50.866;5.420;2023-12-20T04:57:21;9.90;;;2.40;;
83552;SDS011;73510;50.866;5.420;2023-12-20T04:59:46;12.80;;;3.72;;
83552;SDS011;73510;50.866;5.420;2023-12-20T05:02:12;11.80;;;3.08;;
83552;SDS011;73510;50.866;5.420;2023-12-20T05:04:38;10.63;;;3.05;;
83552;SDS011;73510;50.866;5.420;2023-12-20T05:07:04;7.63;;;3.05;;
83552;SDS011;73510;50.866;5.420;2023-12-20T05:09:30;9.25;;;2.90;;
83552;SDS011;73510;50.866;5.420;2023-12-20T05:11:56;9.27;;;2.72;;
83552;SDS011;73510;50.866;5.420;2023-12-20T05:14:22;12.45;;;3.65;;
83552;SDS011;73510;50.866;5.420;2023-12-20T05:16:47;13.00;;;3.22;;
83552;SDS011;73510;50.866;5.420;2023-12-20T05:19:13;12.38;;;3.58;;
83552;SDS011;73510;50.866;5.420;2023-12-20T05:21:39;7.18;;;3.28;;
83552;SDS011;73510;50.866;5.420;2023-12-20T05:24:05;10.38;;;3.50;;
83552;SDS011;73510;50.866;5.420;2023-12-20T05:26:30;11.48;;;3.60;;
83552;SDS011;73510;50.866;5.420;2023-12-20T05:28:56;9.30;;;3.17;;
83552;SDS011;73510;50.866;5.420;2023-12-20T05:31:22;8.32;;;3.45;;
83552;SDS011;73510;50.866;5.420;2023-12-20T05:33:47;9.13;;;3.40;;
83552;SDS011;73510;50.866;5.420;2023-12-20T05:36:13;10.00;;;3.53;;
83552;SDS011;73510;50.866;5.420;2023-12-20T05:38:40;10.80;;;3.00;;
83552;SDS011;73510;50.866;5.420;2023-12-20T05:41:06;11.68;;;3.55;;
83552;SDS011;73510;50.866;5.420;2023-12-20T05:43:32;2.80;;;1.90;;
83552;SDS011;73510;50.866;5.420;2023-12-20T05:45:58;6.07;;;2.40;;
83552;SDS011;73510;50.866;5.420;2023-12-20T05:48:24;9.88;;;2.85;;
83552;SDS011;73510;50.866;5.420;2023-12-20T05:50:50;6.13;;;3.00;;
83552;SDS011;73510;50.866;5.420;2023-12-20T05:53:16;7.93;;;3.10;;
83552;SDS011;73510;50.866;5.420;2023-12-20T05:55:41;10.60;;;3.13;;
83552;SDS011;73510;50.866;5.420;2023-12-20T05:58:07;10.93;;;2.80;;
83552;SDS011;73510;50.866;5.420;2023-12-20T06:00:32;8.85;;;3.10;;
83552;SDS011;73510;50.866;5.420;2023-12-20T06:02:58;11.25;;;3.15;;
83552;SDS011;73510;50.866;5.420;2023-12-20T06:05:25;11.82;;;3.08;;
83552;SDS011;73510;50.866;5.420;2023-12-20T06:07:50;6.80;;;3.30;;
83552;SDS011;73510;50.866;5.420;2023-12-20T06:10:16;11.93;;;3.15;;
83552;SDS011;73510;50.866;5.420;2023-12-20T06:12:42;8.43;;;3.15;;
83552;SDS011;73510;50.866;5.420;2023-12-20T06:15:08;8.40;;;3.30;;
83552;SDS011;73510;50.866;5.420;2023-12-20T06:17:33;9.75;;;3.30;;
83552;SDS011;73510;50.866;5.420;2023-12-20T06:20:00;15.73;;;2.95;;
83552;SDS011;73510;50.866;5.420;2023-12-20T06:22:26;6.97;;;2.85;;
83552;SDS011;73510;50.866;5.420;2023-12-20T06:24:51;11.88;;;2.83;;
83552;SDS011;73510;50.866;5.420;2023-12-20T06:27:17;5.60;;;2.17;;
83552;SDS011;73510;50.866;5.420;2023-12-20T06:29:43;6.40;;;2.60;;
83552;SDS011;73510;50.866;5.420;2023-12-20T06:32:10;10.30;;;3.08;;
83552;SDS011;73510;50.866;5.420;2023-12-20T06:34:35;10.07;;;3.45;;
83552;SDS011;73510;50.866;5.420;2023-12-20T06:37:01;9.73;;;3.53;;
83552;SDS011;73510;50.866;5.420;2023-12-20T06:39:27;11.18;;;4.22;;
83552;SDS011;73510;50.866;5.420;2023-12-20T06:41:53;12.27;;;3.20;;
83552;SDS011;73510;50.866;5.420;2023-12-20T06:44:18;8.10;;;2.97;;
83552;SDS011;73510;50.866;5.420;2023-12-20T06:46:45;9.45;;;3.30;;
83552;SDS011;73510;50.866;5.420;2023-12-20T06:49:11;13.05;;;3.45;;
83552;SDS011;73510;50.866;5.420;2023-12-20T06:51:37;11.02;;;3.90;;
83552;SDS011;73510;50.866;5.420;2023-12-20T06:54:02;9.70;;;3.65;;
83552;SDS011;73510;50.866;5.420;2023-12-20T06:56:28;5.00;;;2.60;;
83552;SDS011;73510;50.866;5.420;2023-12-20T06:58:54;14.82;;;4.57;;
83552;SDS011;73510;50.866;5.420;2023-12-20T07:01:19;8.70;;;3.10;;
83552;SDS011;73510;50.866;5.420;2023-12-20T07:03:45;8.10;;;2.55;;
83552;SDS011;73510;50.866;5.420;2023-12-20T07:06:11;12.38;;;4.10;;
83552;SDS011;73510;50.866;5.420;2023-12-20T07:08:38;8.95;;;3.28;;
83552;SDS011;73510;50.866;5.420;2023-12-20T07:11:05;6.93;;;3.08;;
83552;SDS011;73510;50.866;5.420;2023-12-20T07:13:31;10.10;;;3.53;;
83552;SDS011;73510;50.866;5.420;2023-12-20T07:15:56;13.23;;;3.75;;
83552;SDS011;73510;50.866;5.420;2023-12-20T07:18:22;6.47;;;2.92;;
83552;SDS011;73510;50.866;5.420;2023-12-20T07:20:48;6.22;;;2.90;;
83552;SDS011;73510;50.866;5.420;2023-12-20T07:23:13;11.98;;;3.92;;
83552;SDS011;73510;50.866;5.420;2023-12-20T07:25:39;9.65;;;3.67;;
83552;SDS011;73510;50.866;5.420;2023-12-20T07:28:05;14.55;;;3.75;;
83552;SDS011;73510;50.866;5.420;2023-12-20T07:30:30;9.05;;;3.80;;
83552;SDS011;73510;50.866;5.420;2023-12-20T07:32:56;10.45;;;3.63;;
83552;SDS011;73510;50.866;5.420;2023-12-20T07:35:23;11.40;;;3.53;;
83552;SDS011;73510;50.866;5.420;2023-12-20T07:37:48;9.13;;;2.72;;
83552;SDS011;73510;50.866;5.420;2023-12-20T07:40:14;9.88;;;3.53;;
83552;SDS011;73510;50.866;5.420;2023-12-20T07:42:42;10.77;;;3.45;;
83552;SDS011;73510;50.866;5.420;2023-12-20T07:45:07;14.60;;;4.45;;
83552;SDS011;73510;50.866;5.420;2023-12-20T07:47:36;8.05;;;3.05;;
83552;SDS011;73510;50.866;5.420;2023-12-20T07:50:01;11.63;;;3.22;;
83552;SDS011;73510;50.866;5.420;2023-12-20T07:52:27;10.68;;;3.22;;
83552;SDS011;73510;50.866;5.420;2023-12-20T07:54:54;7.70;;;3.17;;
83552;SDS011;73510;50.866;5.420;2023-12-20T07:57:20;8.88;;;3.65;;
83552;SDS011;73510;50.866;5.420;2023-12-20T07:59:46;10.15;;;3.58;;
83552;SDS011;73510;50.866;5.420;2023-12-20T08:02:11;9.82;;;3.15;;
83552;SDS011;73510;50.866;5.420;2023-12-20T08:04:37;6.80;;;3.28;;
83552;SDS011;73510;50.866;5.420;2023-12-20T08:07:03;11.48;;;2.75;;
83552;SDS011;73510;50.866;5.420;2023-12-20T08:09:29;5.72;;;2.70;;
83552;SDS011;73510;50.866;5.420;2023-12-20T08:11:56;9.55;;;3.22;;
83552;SDS011;73510;50.866;5.420;2023-12-20T08:14:24;8.63;;;2.50;;
83552;SDS011;73510;50.866;5.420;2023-12-20T08:16:50;11.90;;;4.32;;
83552;SDS011;73510;50.866;5.420;2023-12-20T08:19:16;12.25;;;3.47;;
83552;SDS011;73510;50.866;5.420;2023-12-20T08:21:42;9.80;;;3.20;;
83552;SDS011;73510;50.866;5.420;2023-12-20T08:24:07;6.93;;;2.80;;
83552;SDS011;73510;50.866;5.420;2023-12-20T08:26:33;11.68;;;3.22;;
83552;SDS011;73510;50.866;5.420;2023-12-20T08:28:59;9.88;;;2.70;;
83552;SDS011;73510;50.866;5.420;2023-12-20T08:31:25;10.18;;;2.80;;
83552;SDS011;73510;50.866;5.420;2023-12-20T08:33:51;7.30;;;2.83;;
83552;SDS011;73510;50.866;5.420;2023-12-20T08:36:18;7.32;;;2.72;;
83552;SDS011;73510;50.866;5.420;2023-12-20T08:38:46;9.27;;;2.45;;
83552;SDS011;73510;50.866;5.420;2023-12-20T08:41:12;10.32;;;2.78;;
83552;SDS011;73510;50.866;5.420;2023-12-20T08:43:38;9.48;;;2.38;;
83552;SDS011;73510;50.866;5.420;2023-12-20T08:46:06;6.80;;;2.67;;
83552;SDS011;73510;50.866;5.420;2023-12-20T08:48:36;6.15;;;2.33;;
83552;SDS011;73510;50.866;5.420;2023-12-20T08:51:03;7.88;;;2.20;;
83552;SDS011;73510;50.866;5.420;2023-12-20T08:53:29;9.07;;;2.35;;
83552;SDS011;73510;50.866;5.420;2023-12-20T08:55:54;7.47;;;2.42;;
83552;SDS011;73510;50.866;5.420;2023-12-20T08:58:20;10.07;;;2.60;;
83552;SDS011;73510;50.866;5.420;2023-12-20T09:00:46;9.80;;;2.47;;
83552;SDS011;73510;50.866;5.420;2023-12-20T09:03:11;8.82;;;1.90;;
83552;SDS011;73510;50.866;5.420;2023-12-20T09:05:37;8.32;;;2.00;;
83552;SDS011;73510;50.866;5.420;2023-12-20T09:08:03;14.43;;;3.53;;
83552;SDS011;73510;50.866;5.420;2023-12-20T09:10:29;6.13;;;1.75;;
83552;SDS011;73510;50.866;5.420;2023-12-20T09:12:55;9.73;;;2.35;;
83552;SDS011;73510;50.866;5.420;2023-12-20T09:15:25;5.05;;;1.85;;
83552;SDS011;73510;50.866;5.420;2023-12-20T09:17:51;8.25;;;2.08;;
83552;SDS011;73510;50.866;5.420;2023-12-20T09:20:17;4.55;;;1.50;;
83552;SDS011;73510;50.866;5.420;2023-12-20T09:22:43;10.43;;;2.40;;
83552;SDS011;73510;50.866;5.420;2023-12-20T09:25:09;7.90;;;1.85;;
83552;SDS011;73510;50.866;5.420;2023-12-20T09:27:36;7.90;;;1.95;;
83552;SDS011;73510;50.866;5.420;2023-12-20T09:30:02;12.73;;;2.30;;
83552;SDS011;73510;50.866;5.420;2023-12-20T09:32:29;8.02;;;2.13;;
83552;SDS011;73510;50.866;5.420;2023-12-20T09:34:54;8.23;;;2.47;;
83552;SDS011;73510;50.866;5.420;2023-12-20T09:37:20;6.10;;;2.15;;
83552;SDS011;73510;50.866;5.420;2023-12-20T09:39:46;7.68;;;2.30;;
83552;SDS011;73510;50.866;5.420;2023-12-20T09:42:11;7.13;;;2.25;;
83552;SDS011;73510;50.866;5.420;2023-12-20T09:44:41;7.38;;;2.20;;
83552;SDS011;73510;50.866;5.420;2023-12-20T09:47:07;5.10;;;1.50;;
83552;SDS011;73510;50.866;5.420;2023-12-20T09:49:34;7.72;;;2.25;;
83552;SDS011;73510;50.866;5.420;2023-12-20T09:52:01;4.10;;;1.77;;
83552;SDS011;73510;50.866;5.420;2023-12-20T09:54:29;5.60;;;2.08;;
83552;SDS011;73510;50.866;5.420;2023-12-20T09:56:55;6.78;;;2.28;;
83552;SDS011;73510;50.866;5.420;2023-12-20T09:59:21;14.10;;;2.63;;
83552;SDS011;73510;50.866;5.420;2023-12-20T10:01:47;9.95;;;2.30;;
83552;SDS011;73510;50.866;5.420;2023-12-20T10:04:13;6.43;;;2.10;;
83552;SDS011;73510;50.866;5.420;2023-12-20T10:06:43;4.90;;;1.42;;
83552;SDS011;73510;50.866;5.420;2023-12-20T10:09:10;7.22;;;1.90;;
83552;SDS011;73510;50.866;5.420;2023-12-20T10:11:37;4.97;;;1.35;;
83552;SDS011;73510;50.866;5.420;2023-12-20T10:14:04;7.82;;;1.92;;
83552;SDS011;73510;50.866;5.420;2023-12-20T10:16:31;6.45;;;1.92;;
83552;SDS011;73510;50.866;5.420;2023-12-20T10:18:58;5.43;;;1.73;;
83552;SDS011;73510;50.866;5.420;2023-12-20T10:21:25;7.68;;;1.98;;
83552;SDS011;73510;50.866;5.420;2023-12-20T10:23:54;7.97;;;2.05;;
83552;SDS011;73510;50.866;5.420;2023-12-20T10:26:20;9.98;;;2.75;;
83552;SDS011;73510;50.866;5.420;2023-12-20T10:28:46;13.50;;;3.03;;
83552;SDS011;73510;50.866;5.420;2023-12-20T10:31:29;10.65;;;2.40;;
83552;SDS011;73510;50.866;5.420;2023-12-20T10:33:56;10.38;;;2.80;;
83552;SDS011;73510;50.866;5.420;2023-12-20T10:36:24;8.45;;;2.40;;
83552;SDS011;73510;50.866;5.420;2023-12-20T10:38:54;7.65;;;2.55;;
83552;SDS011;73510;50.866;5.420;2023-12-20T10:43:53;5.80;;;2.67;;
83552;SDS011;73510;50.866;5.420;2023-12-20T10:46:27;8.23;;;2.75;;
83552;SDS011;73510;50.866;5.420;2023-12-20T10:48:54;8.60;;;2.30;;
83552;SDS011;73510;50.866;5.420;2023-12-20T10:51:22;8.85;;;2.42;;
83552;SDS011;73510;50.866;5.420;2023-12-20T10:53:52;7.68;;;2.30;;
83552;SDS011;73510;50.866;5.420;2023-12-20T10:56:18;8.63;;;2.20;;
83552;SDS011;73510;50.866;5.420;2023-12-20T10:58:45;10.88;;;2.70;;
83552;SDS011;73510;50.866;5.420;2023-12-20T11:01:16;7.07;;;2.42;;
83552;SDS011;73510;50.866;5.420;2023-12-20T11:03:51;9.90;;;2.58;;
83552;SDS011;73510;50.866;5.420;2023-12-20T11:15:07;9.13;;;3.00;;
83552;SDS011;73510;50.866;5.420;2023-12-20T11:17:15;6.20;;;2.78;;
83552;SDS011;73510;50.866;5.420;2023-12-20T11:22:31;7.40;;;2.25;;
83552;SDS011;73510;50.866;5.420;2023-12-20T11:27:29;8.02;;;2.53;;
83552;SDS011;73510;50.866;5.420;2023-12-20T11:29:56;7.72;;;2.20;;
83552;SDS011;73510;50.866;5.420;2023-12-20T11:34:56;10.10;;;2.80;;
83552;SDS011;73510;50.866;5.420;2023-12-20T11:37:31;7.07;;;2.28;;
83552;SDS011;73510;50.866;5.420;2023-12-20T11:42:50;9.77;;;2.20;;
83552;SDS011;73510;50.866;5.420;2023-12-20T11:45:17;8.00;;;2.25;;
83552;SDS011;73510;50.866;5.420;2023-12-20T11:47:48;5.15;;;2.03;;
83552;SDS011;73510;50.866;5.420;2023-12-20T11:50:21;9.63;;;2.95;;
83552;SDS011;73510;50.866;5.420;2023-12-20T11:52:48;4.60;;;2.10;;
83552;SDS011;73510;50.866;5.420;2023-12-20T11:55:14;8.57;;;1.90;;
83552;SDS011;73510;50.866;5.420;2023-12-20T11:57:39;10.18;;;2.90;;
83552;SDS011;73510;50.866;5.420;2023-12-20T12:00:05;9.00;;;2.55;;
83552;SDS011;73510;50.866;5.420;2023-12-20T12:02:32;9.55;;;2.47;;
83552;SDS011;73510;50.866;5.420;2023-12-20T12:04:57;10.52;;;3.65;;
83552;SDS011;73510;50.866;5.420;2023-12-20T12:07:24;6.72;;;2.58;;
83552;SDS011;73510;50.866;5.420;2023-12-20T12:09:50;8.93;;;2.40;;
83552;SDS011;73510;50.866;5.420;2023-12-20T12:12:16;8.63;;;2.10;;
83552;SDS011;73510;50.866;5.420;2023-12-20T12:14:46;8.35;;;2.25;;
83552;SDS011;73510;50.866;5.420;2023-12-20T12:17:13;7.68;;;2.58;;
83552;SDS011;73510;50.866;5.420;2023-12-20T12:19:39;9.98;;;2.67;;
83552;SDS011;73510;50.866;5.420;2023-12-20T12:22:15;6.80;;;2.47;;
83552;SDS011;73510;50.866;5.420;2023-12-20T12:24:44;4.90;;;1.52;;
83552;SDS011;73510;50.866;5.420;2023-12-20T12:27:14;6.88;;;2.78;;
83552;SDS011;73510;50.866;5.420;2023-12-20T12:29:41;8.52;;;2.90;;
83552;SDS011;73510;50.866;5.420;2023-12-20T12:32:24;9.02;;;2.22;;
83552;SDS011;73510;50.866;5.420;2023-12-20T12:34:50;6.07;;;2.08;;
83552;SDS011;73510;50.866;5.420;2023-12-20T12:37:16;8.98;;;2.35;;
83552;SDS011;73510;50.866;5.420;2023-12-20T12:39:42;7.68;;;2.45;;
83552;SDS011;73510;50.866;5.420;2023-12-20T12:42:07;7.93;;;2.20;;
83552;SDS011;73510;50.866;5.420;2023-12-20T12:44:33;7.15;;;2.78;;
83552;SDS011;73510;50.866;5.420;2023-12-20T12:46:59;6.97;;;1.95;;
83552;SDS011;73510;50.866;5.420;2023-12-20T12:49:24;10.80;;;2.63;;
83552;SDS011;73510;50.866;5.420;2023-12-20T12:51:53;11.45;;;2.50;;
83552;SDS011;73510;50.866;5.420;2023-12-20T12:54:21;11.70;;;2.55;;
83552;SDS011;73510;50.866;5.420;2023-12-20T12:56:47;8.77;;;2.90;;
83552;SDS011;73510;50.866;5.420;2023-12-20T12:59:13;7.72;;;2.28;;
83552;SDS011;73510;50.866;5.420;2023-12-20T13:01:38;6.30;;;2.53;;
83552;SDS011;73510;50.866;5.420;2023-12-20T13:04:04;5.95;;;2.13;;
83552;SDS011;73510;50.866;5.420;2023-12-20T13:06:35;8.80;;;3.00;;
83552;SDS011;73510;50.866;5.420;2023-12-20T13:09:02;8.60;;;2.42;;
83552;SDS011;73510;50.866;5.420;2023-12-20T13:11:29;8.05;;;2.05;;
83552;SDS011;73510;50.866;5.420;2023-12-20T13:13:57;11.48;;;2.58;;
83552;SDS011;73510;50.866;5.420;2023-12-20T13:16:25;8.13;;;3.05;;
83552;SDS011;73510;50.866;5.420;2023-12-20T13:18:51;9.90;;;2.85;;
83552;SDS011;73510;50.866;5.420;2023-12-20T13:21:17;5.60;;;2.00;;
83552;SDS011;73510;50.866;5.420;2023-12-20T13:23:42;10.10;;;2.55;;
83552;SDS011;73510;50.866;5.420;2023-12-20T13:26:08;5.15;;;1.60;;
83552;SDS011;73510;50.866;5.420;2023-12-20T13:28:34;6.47;;;1.80;;
83552;SDS011;73510;50.866;5.420;2023-12-20T13:30:59;12.50;;;2.47;;
83552;SDS011;73510;50.866;5.420;2023-12-20T13:33:25;6.72;;;2.53;;
83552;SDS011;73510;50.866;5.420;2023-12-20T13:35:51;9.20;;;3.08;;
83552;SDS011;73510;50.866;5.420;2023-12-20T13:38:16;11.93;;;2.33;;
83552;SDS011;73510;50.866;5.420;2023-12-20T13:40:42;8.60;;;2.60;;
83552;SDS011;73510;50.866;5.420;2023-12-20T13:43:08;8.73;;;2.47;;
83552;SDS011;73510;50.866;5.420;2023-12-20T13:45:36;8.95;;;2.58;;
83552;SDS011;73510;50.866;5.420;2023-12-20T13:48:02;9.02;;;2.40;;
83552;SDS011;73510;50.866;5.420;2023-12-20T13:50:28;9.30;;;2.55;;
83552;SDS011;73510;50.866;5.420;2023-12-20T13:52:54;11.73;;;2.38;;
83552;SDS011;73510;50.866;5.420;2023-12-20T13:55:20;5.47;;;2.55;;
83552;SDS011;73510;50.866;5.420;2023-12-20T13:57:50;7.35;;;3.00;;
83552;SDS011;73510;50.866;5.420;2023-12-20T14:00:16;13.02;;;2.88;;
83552;SDS011;73510;50.866;5.420;2023-12-20T14:02:42;13.23;;;3.10;;
83552;SDS011;73510;50.866;5.420;2023-12-20T14:05:08;7.32;;;2.58;;
83552;SDS011;73510;50.866;5.420;2023-12-20T14:07:35;5.85;;;2.10;;
83552;SDS011;73510;50.866;5.420;2023-12-20T14:10:01;9.98;;;2.38;;
83552;SDS011;73510;50.866;5.420;2023-12-20T14:12:27;12.50;;;3.15;;
83552;SDS011;73510;50.866;5.420;2023-12-20T14:14:53;7.63;;;2.50;;
83552;SDS011;73510;50.866;5.420;2023-12-20T14:17:21;9.27;;;2.47;;
83552;SDS011;73510;50.866;5.420;2023-12-20T14:19:47;6.95;;;2.95;;
83552;SDS011;73510;50.866;5.420;2023-12-20T14:22:12;8.38;;;2.67;;
83552;SDS011;73510;50.866;5.420;2023-12-20T14:24:41;11.63;;;2.15;;
83552;SDS011;73510;50.866;5.420;2023-12-20T14:27:07;7.60;;;2.60;;
83552;SDS011;73510;50.866;5.420;2023-12-20T14:29:34;7.30;;;2.45;;
83552;SDS011;73510;50.866;5.420;2023-12-20T14:32:00;7.25;;;2.00;;
83552;SDS011;73510;50.866;5.420;2023-12-20T14:34:27;11.10;;;2.53;;
83552;SDS011;73510;50.866;5.420;2023-12-20T14:36:53;7.28;;;1.85;;
83552;SDS011;73510;50.866;5.420;2023-12-20T14:39:19;8.93;;;3.00;;
83552;SDS011;73510;50.866;5.420;2023-12-20T14:41:45;6.20;;;1.88;;
83552;SDS011;73510;50.866;5.420;2023-12-20T14:44:10;6.57;;;2.88;;
83552;SDS011;73510;50.866;5.420;2023-12-20T14:46:36;10.80;;;2.42;;
83552;SDS011;73510;50.866;5.420;2023-12-20T14:49:02;5.50;;;2.15;;
83552;SDS011;73510;50.866;5.420;2023-12-20T14:51:29;11.35;;;3.00;;
83552;SDS011;73510;50.866;5.420;2023-12-20T14:53:55;8.65;;;2.60;;
83552;SDS011;73510;50.866;5.420;2023-12-20T14:56:22;6.25;;;2.83;;
83552;SDS011;73510;50.866;5.420;2023-12-20T14:58:51;7.13;;;2.80;;